sensor_id;sensor_type;location;lat;lon;timestamp;P1;durP1;ratioP1;P2;durP2;ratioP2
8592;SDS011;4334;49.982;8.398;2022-11-11T00:01:51;55.93;;;19.63;;
8592;SDS011;4334;49.982;8.398;2022-11-11T00:04:18;52.57;;;19.17;;
8592;SDS011;4334;49.982;8.398;2022-11-11T00:06:45;56.30;;;20.27;;
8592;SDS011;4334;49.982;8.398;2022-11-11T00:09:13;54.80;;;20.10;;
8592;SDS011;4334;49.982;8.398;2022-11-11T00:11:40;70.07;;;26.53;;
8592;SDS011;4334;49.982;8.398;2022-11-11T00:14:07;61.13;;;21.20;;
8592;SDS011;4334;49.982;8.398;2022-11-11T00:16:34;62.00;;;20.17;;
8592;SDS011;4334;49.982;8.398;2022-11-11T00:19:15;61.73;;;20.43;;
8592;SDS011;4334;49.982;8.398;2022-11-11T00:21:59;63.90;;;25.73;;
8592;SDS011;4334;49.982;8.398;2022-11-11T00:24:44;61.97;;;21.67;;
8592;SDS011;4334;49.982;8.398;2022-11-11T00:27:29;60.17;;;20.37;;
8592;SDS011;4334;49.982;8.398;2022-11-11T00:29:56;59.73;;;19.80;;
8592;SDS011;4334;49.982;8.398;2022-11-11T00:32:23;57.77;;;21.03;;
8592;SDS011;4334;49.982;8.398;2022-11-11T00:34:51;60.13;;;21.40;;
8592;SDS011;4334;49.982;8.398;2022-11-11T00:37:38;63.70;;;21.03;;
8592;SDS011;4334;49.982;8.398;2022-11-11T00:40:08;56.17;;;19.80;;
8592;SDS011;4334;49.982;8.398;2022-11-11T00:42:36;70.23;;;20.07;;
8592;SDS011;4334;49.982;8.398;2022-11-11T00:45:03;62.57;;;21.03;;
8592;SDS011;4334;49.982;8.398;2022-11-11T00:47:31;61.23;;;19.80;;
8592;SDS011;4334;49.982;8.398;2022-11-11T00:50:16;66.83;;;20.40;;
8592;SDS011;4334;49.982;8.398;2022-11-11T00:53:03;59.33;;;18.80;;
8592;SDS011;4334;49.982;8.398;2022-11-11T00:55:34;64.13;;;21.23;;
8592;SDS011;4334;49.982;8.398;2022-11-11T00:58:01;59.23;;;20.57;;
8592;SDS011;4334;49.982;8.398;2022-11-11T01:00:28;58.57;;;20.17;;
8592;SDS011;4334;49.982;8.398;2022-11-11T01:02:56;57.83;;;18.20;;
8592;SDS011;4334;49.982;8.398;2022-11-11T01:05:22;56.93;;;19.23;;
8592;SDS011;4334;49.982;8.398;2022-11-11T01:07:49;59.90;;;18.53;;
8592;SDS011;4334;49.982;8.398;2022-11-11T01:10:16;57.33;;;19.03;;
8592;SDS011;4334;49.982;8.398;2022-11-11T01:12:59;59.57;;;18.23;;
8592;SDS011;4334;49.982;8.398;2022-11-11T01:15:36;47.90;;;18.07;;
8592;SDS011;4334;49.982;8.398;2022-11-11T01:18:04;58.23;;;19.83;;
8592;SDS011;4334;49.982;8.398;2022-11-11T01:20:31;56.77;;;20.00;;
8592;SDS011;4334;49.982;8.398;2022-11-11T01:22:58;62.47;;;20.93;;
8592;SDS011;4334;49.982;8.398;2022-11-11T01:25:25;61.37;;;19.43;;
8592;SDS011;4334;49.982;8.398;2022-11-11T01:27:52;61.47;;;20.60;;
8592;SDS011;4334;49.982;8.398;2022-11-11T01:30:20;58.00;;;19.80;;
8592;SDS011;4334;49.982;8.398;2022-11-11T01:32:47;54.67;;;19.70;;
8592;SDS011;4334;49.982;8.398;2022-11-11T01:35:14;64.00;;;21.27;;
8592;SDS011;4334;49.982;8.398;2022-11-11T01:37:40;74.63;;;22.73;;
8592;SDS011;4334;49.982;8.398;2022-11-11T01:40:09;64.93;;;20.90;;
8592;SDS011;4334;49.982;8.398;2022-11-11T01:42:46;72.07;;;21.37;;
8592;SDS011;4334;49.982;8.398;2022-11-11T01:48:16;60.33;;;21.37;;
8592;SDS011;4334;49.982;8.398;2022-11-11T01:51:05;58.83;;;20.57;;
8592;SDS011;4334;49.982;8.398;2022-11-11T01:53:38;62.87;;;21.43;;
8592;SDS011;4334;49.982;8.398;2022-11-11T01:56:05;64.47;;;22.07;;
8592;SDS011;4334;49.982;8.398;2022-11-11T01:58:35;70.10;;;22.20;;
8592;SDS011;4334;49.982;8.398;2022-11-11T02:01:04;73.50;;;23.70;;
8592;SDS011;4334;49.982;8.398;2022-11-11T02:03:32;61.93;;;21.67;;
8592;SDS011;4334;49.982;8.398;2022-11-11T02:06:04;68.97;;;22.47;;
8592;SDS011;4334;49.982;8.398;2022-11-11T02:08:31;64.60;;;21.20;;
8592;SDS011;4334;49.982;8.398;2022-11-11T02:11:02;100.20;;;21.90;;
8592;SDS011;4334;49.982;8.398;2022-11-11T02:13:32;138.47;;;22.33;;
8592;SDS011;4334;49.982;8.398;2022-11-11T02:16:21;180.00;;;21.83;;
8592;SDS011;4334;49.982;8.398;2022-11-11T02:18:48;91.93;;;21.03;;
8592;SDS011;4334;49.982;8.398;2022-11-11T02:21:17;181.93;;;21.10;;
8592;SDS011;4334;49.982;8.398;2022-11-11T02:23:53;199.10;;;21.30;;
8592;SDS011;4334;49.982;8.398;2022-11-11T02:26:27;147.17;;;20.10;;
8592;SDS011;4334;49.982;8.398;2022-11-11T02:28:56;146.83;;;18.37;;
8592;SDS011;4334;49.982;8.398;2022-11-11T02:31:25;159.00;;;19.07;;
8592;SDS011;4334;49.982;8.398;2022-11-11T02:33:54;117.13;;;17.37;;
8592;SDS011;4334;49.982;8.398;2022-11-11T02:36:20;161.80;;;18.17;;
8592;SDS011;4334;49.982;8.398;2022-11-11T02:38:48;204.70;;;18.80;;
8592;SDS011;4334;49.982;8.398;2022-11-11T02:41:16;162.47;;;16.40;;
8592;SDS011;4334;49.982;8.398;2022-11-11T02:44:01;136.83;;;17.80;;
8592;SDS011;4334;49.982;8.398;2022-11-11T02:46:28;107.67;;;16.93;;
8592;SDS011;4334;49.982;8.398;2022-11-11T02:48:55;111.10;;;17.07;;
8592;SDS011;4334;49.982;8.398;2022-11-11T02:51:22;105.73;;;16.07;;
8592;SDS011;4334;49.982;8.398;2022-11-11T02:53:49;113.77;;;17.03;;
8592;SDS011;4334;49.982;8.398;2022-11-11T02:56:17;106.37;;;16.87;;
8592;SDS011;4334;49.982;8.398;2022-11-11T02:58:58;204.70;;;19.27;;
8592;SDS011;4334;49.982;8.398;2022-11-11T03:01:25;96.70;;;16.73;;
8592;SDS011;4334;49.982;8.398;2022-11-11T03:03:52;130.43;;;16.90;;
8592;SDS011;4334;49.982;8.398;2022-11-11T03:06:19;229.93;;;17.20;;
8592;SDS011;4334;49.982;8.398;2022-11-11T03:08:46;165.90;;;16.53;;
8592;SDS011;4334;49.982;8.398;2022-11-11T03:11:12;149.70;;;17.00;;
8592;SDS011;4334;49.982;8.398;2022-11-11T03:13:41;121.97;;;15.87;;
8592;SDS011;4334;49.982;8.398;2022-11-11T03:16:07;152.00;;;17.23;;
8592;SDS011;4334;49.982;8.398;2022-11-11T03:18:54;112.50;;;17.07;;
8592;SDS011;4334;49.982;8.398;2022-11-11T03:21:20;175.80;;;18.33;;
8592;SDS011;4334;49.982;8.398;2022-11-11T03:23:47;92.57;;;16.37;;
8592;SDS011;4334;49.982;8.398;2022-11-11T03:26:14;125.70;;;16.10;;
8592;SDS011;4334;49.982;8.398;2022-11-11T03:28:42;120.03;;;17.73;;
8592;SDS011;4334;49.982;8.398;2022-11-11T03:31:09;116.47;;;16.40;;
8592;SDS011;4334;49.982;8.398;2022-11-11T03:33:36;99.47;;;17.77;;
8592;SDS011;4334;49.982;8.398;2022-11-11T03:36:03;149.73;;;19.17;;
8592;SDS011;4334;49.982;8.398;2022-11-11T03:38:30;128.27;;;20.37;;
8592;SDS011;4334;49.982;8.398;2022-11-11T03:40:56;116.60;;;21.83;;
8592;SDS011;4334;49.982;8.398;2022-11-11T03:43:24;157.87;;;22.17;;
8592;SDS011;4334;49.982;8.398;2022-11-11T03:45:54;155.23;;;22.07;;
8592;SDS011;4334;49.982;8.398;2022-11-11T03:48:23;156.83;;;21.63;;
8592;SDS011;4334;49.982;8.398;2022-11-11T03:50:51;96.73;;;19.90;;
8592;SDS011;4334;49.982;8.398;2022-11-11T03:53:18;116.60;;;21.43;;
8592;SDS011;4334;49.982;8.398;2022-11-11T03:55:47;196.77;;;21.30;;
8592;SDS011;4334;49.982;8.398;2022-11-11T03:58:14;138.13;;;20.70;;
8592;SDS011;4334;49.982;8.398;2022-11-11T04:00:41;115.40;;;22.47;;
8592;SDS011;4334;49.982;8.398;2022-11-11T04:03:11;175.53;;;22.87;;
8592;SDS011;4334;49.982;8.398;2022-11-11T04:05:56;160.70;;;22.10;;
8592;SDS011;4334;49.982;8.398;2022-11-11T04:08:40;174.23;;;20.70;;
8592;SDS011;4334;49.982;8.398;2022-11-11T04:11:26;136.97;;;21.30;;
8592;SDS011;4334;49.982;8.398;2022-11-11T04:13:55;217.03;;;22.43;;
8592;SDS011;4334;49.982;8.398;2022-11-11T04:16:42;229.80;;;21.03;;
8592;SDS011;4334;49.982;8.398;2022-11-11T04:19:10;269.63;;;22.67;;
8592;SDS011;4334;49.982;8.398;2022-11-11T04:21:55;205.20;;;22.43;;
8592;SDS011;4334;49.982;8.398;2022-11-11T04:24:22;190.90;;;20.93;;
8592;SDS011;4334;49.982;8.398;2022-11-11T04:27:07;173.67;;;20.80;;
8592;SDS011;4334;49.982;8.398;2022-11-11T04:29:35;121.70;;;20.23;;
8592;SDS011;4334;49.982;8.398;2022-11-11T04:32:02;234.17;;;21.60;;
8592;SDS011;4334;49.982;8.398;2022-11-11T04:34:50;126.47;;;17.63;;
8592;SDS011;4334;49.982;8.398;2022-11-11T04:37:18;139.27;;;17.00;;
8592;SDS011;4334;49.982;8.398;2022-11-11T04:39:46;139.70;;;16.87;;
8592;SDS011;4334;49.982;8.398;2022-11-11T04:42:31;128.97;;;18.63;;
8592;SDS011;4334;49.982;8.398;2022-11-11T04:44:59;133.13;;;17.60;;
8592;SDS011;4334;49.982;8.398;2022-11-11T04:47:54;146.73;;;18.20;;
8592;SDS011;4334;49.982;8.398;2022-11-11T04:50:24;233.17;;;19.20;;
8592;SDS011;4334;49.982;8.398;2022-11-11T04:52:52;202.23;;;18.77;;
8592;SDS011;4334;49.982;8.398;2022-11-11T04:55:19;120.57;;;17.50;;
8592;SDS011;4334;49.982;8.398;2022-11-11T04:58:04;229.23;;;18.43;;
8592;SDS011;4334;49.982;8.398;2022-11-11T05:00:31;102.37;;;18.13;;
8592;SDS011;4334;49.982;8.398;2022-11-11T05:02:58;68.90;;;17.30;;
8592;SDS011;4334;49.982;8.398;2022-11-11T05:05:45;165.87;;;18.67;;
8592;SDS011;4334;49.982;8.398;2022-11-11T05:08:31;143.73;;;17.27;;
8592;SDS011;4334;49.982;8.398;2022-11-11T05:11:17;185.93;;;19.33;;
8592;SDS011;4334;49.982;8.398;2022-11-11T05:13:45;172.83;;;19.13;;
8592;SDS011;4334;49.982;8.398;2022-11-11T05:16:30;203.13;;;19.00;;
8592;SDS011;4334;49.982;8.398;2022-11-11T05:19:17;195.27;;;18.70;;
8592;SDS011;4334;49.982;8.398;2022-11-11T05:22:05;164.67;;;15.33;;
8592;SDS011;4334;49.982;8.398;2022-11-11T05:24:36;204.00;;;18.97;;
8592;SDS011;4334;49.982;8.398;2022-11-11T05:27:21;139.87;;;18.93;;
8592;SDS011;4334;49.982;8.398;2022-11-11T05:29:48;146.03;;;17.63;;
8592;SDS011;4334;49.982;8.398;2022-11-11T05:32:15;178.90;;;19.47;;
8592;SDS011;4334;49.982;8.398;2022-11-11T05:34:43;140.90;;;16.50;;
8592;SDS011;4334;49.982;8.398;2022-11-11T05:37:12;249.50;;;19.83;;
8592;SDS011;4334;49.982;8.398;2022-11-11T05:39:39;193.87;;;15.33;;
8592;SDS011;4334;49.982;8.398;2022-11-11T05:42:07;285.50;;;17.53;;
8592;SDS011;4334;49.982;8.398;2022-11-11T05:44:34;144.37;;;16.80;;
8592;SDS011;4334;49.982;8.398;2022-11-11T05:47:00;178.77;;;17.33;;
8592;SDS011;4334;49.982;8.398;2022-11-11T05:49:28;146.40;;;15.50;;
8592;SDS011;4334;49.982;8.398;2022-11-11T05:51:55;121.00;;;18.03;;
8592;SDS011;4334;49.982;8.398;2022-11-11T05:54:24;164.53;;;18.80;;
8592;SDS011;4334;49.982;8.398;2022-11-11T05:56:51;167.47;;;16.27;;
8592;SDS011;4334;49.982;8.398;2022-11-11T05:59:17;196.60;;;18.47;;
8592;SDS011;4334;49.982;8.398;2022-11-11T06:01:44;205.17;;;18.37;;
8592;SDS011;4334;49.982;8.398;2022-11-11T06:04:11;217.83;;;18.30;;
8592;SDS011;4334;49.982;8.398;2022-11-11T06:06:38;191.97;;;18.07;;
8592;SDS011;4334;49.982;8.398;2022-11-11T06:09:05;254.00;;;16.80;;
8592;SDS011;4334;49.982;8.398;2022-11-11T06:11:33;191.80;;;16.93;;
8592;SDS011;4334;49.982;8.398;2022-11-11T06:14:00;93.90;;;18.67;;
8592;SDS011;4334;49.982;8.398;2022-11-11T06:16:27;148.53;;;17.70;;
8592;SDS011;4334;49.982;8.398;2022-11-11T06:18:55;104.17;;;17.33;;
8592;SDS011;4334;49.982;8.398;2022-11-11T06:21:22;116.03;;;17.50;;
8592;SDS011;4334;49.982;8.398;2022-11-11T06:23:49;167.40;;;17.77;;
8592;SDS011;4334;49.982;8.398;2022-11-11T06:26:16;89.40;;;14.77;;
8592;SDS011;4334;49.982;8.398;2022-11-11T06:28:46;181.13;;;16.13;;
8592;SDS011;4334;49.982;8.398;2022-11-11T06:31:15;156.13;;;16.67;;
8592;SDS011;4334;49.982;8.398;2022-11-11T06:33:42;81.93;;;16.50;;
8592;SDS011;4334;49.982;8.398;2022-11-11T06:36:10;125.13;;;18.37;;
8592;SDS011;4334;49.982;8.398;2022-11-11T06:38:38;122.37;;;17.30;;
8592;SDS011;4334;49.982;8.398;2022-11-11T06:41:05;73.67;;;18.30;;
8592;SDS011;4334;49.982;8.398;2022-11-11T06:43:32;83.70;;;16.00;;
8592;SDS011;4334;49.982;8.398;2022-11-11T06:46:00;176.20;;;18.43;;
8592;SDS011;4334;49.982;8.398;2022-11-11T06:48:27;65.87;;;13.50;;
8592;SDS011;4334;49.982;8.398;2022-11-11T06:50:54;57.23;;;12.47;;
8592;SDS011;4334;49.982;8.398;2022-11-11T06:53:26;68.60;;;13.00;;
8592;SDS011;4334;49.982;8.398;2022-11-11T06:55:54;47.30;;;12.93;;
8592;SDS011;4334;49.982;8.398;2022-11-11T06:58:21;57.73;;;13.13;;
8592;SDS011;4334;49.982;8.398;2022-11-11T07:00:50;48.23;;;12.93;;
8592;SDS011;4334;49.982;8.398;2022-11-11T07:03:18;45.33;;;13.33;;
8592;SDS011;4334;49.982;8.398;2022-11-11T07:05:46;50.67;;;13.03;;
8592;SDS011;4334;49.982;8.398;2022-11-11T07:08:13;47.07;;;13.33;;
8592;SDS011;4334;49.982;8.398;2022-11-11T07:10:42;37.40;;;11.30;;
8592;SDS011;4334;49.982;8.398;2022-11-11T07:13:11;48.07;;;12.77;;
8592;SDS011;4334;49.982;8.398;2022-11-11T07:15:38;56.13;;;12.70;;
8592;SDS011;4334;49.982;8.398;2022-11-11T07:18:06;46.87;;;14.40;;
8592;SDS011;4334;49.982;8.398;2022-11-11T07:20:34;54.17;;;13.03;;
8592;SDS011;4334;49.982;8.398;2022-11-11T07:23:02;65.37;;;12.33;;
8592;SDS011;4334;49.982;8.398;2022-11-11T07:25:29;40.53;;;12.30;;
8592;SDS011;4334;49.982;8.398;2022-11-11T07:27:56;61.63;;;12.80;;
8592;SDS011;4334;49.982;8.398;2022-11-11T07:30:23;45.87;;;13.13;;
8592;SDS011;4334;49.982;8.398;2022-11-11T07:32:50;57.00;;;12.50;;
8592;SDS011;4334;49.982;8.398;2022-11-11T07:35:18;89.50;;;15.23;;
8592;SDS011;4334;49.982;8.398;2022-11-11T07:37:47;62.33;;;14.83;;
8592;SDS011;4334;49.982;8.398;2022-11-11T07:40:15;36.70;;;11.33;;
8592;SDS011;4334;49.982;8.398;2022-11-11T07:42:43;58.93;;;12.97;;
8592;SDS011;4334;49.982;8.398;2022-11-11T07:45:10;35.10;;;11.27;;
8592;SDS011;4334;49.982;8.398;2022-11-11T07:47:37;37.30;;;11.70;;
8592;SDS011;4334;49.982;8.398;2022-11-11T07:50:07;34.23;;;12.00;;
8592;SDS011;4334;49.982;8.398;2022-11-11T07:52:34;35.33;;;11.70;;
8592;SDS011;4334;49.982;8.398;2022-11-11T07:55:03;37.60;;;11.77;;
8592;SDS011;4334;49.982;8.398;2022-11-11T07:57:30;44.23;;;12.93;;
8592;SDS011;4334;49.982;8.398;2022-11-11T07:59:57;36.60;;;13.13;;
8592;SDS011;4334;49.982;8.398;2022-11-11T08:02:24;33.10;;;11.53;;
8592;SDS011;4334;49.982;8.398;2022-11-11T08:04:51;26.50;;;11.20;;
8592;SDS011;4334;49.982;8.398;2022-11-11T08:07:18;29.33;;;10.70;;
8592;SDS011;4334;49.982;8.398;2022-11-11T08:09:45;23.07;;;10.87;;
8592;SDS011;4334;49.982;8.398;2022-11-11T08:12:13;34.90;;;11.10;;
8592;SDS011;4334;49.982;8.398;2022-11-11T08:14:57;24.83;;;10.73;;
8592;SDS011;4334;49.982;8.398;2022-11-11T08:17:24;30.10;;;11.93;;
8592;SDS011;4334;49.982;8.398;2022-11-11T08:19:51;32.63;;;11.83;;
8592;SDS011;4334;49.982;8.398;2022-11-11T08:22:18;27.70;;;12.70;;
8592;SDS011;4334;49.982;8.398;2022-11-11T08:24:44;23.97;;;10.70;;
8592;SDS011;4334;49.982;8.398;2022-11-11T08:27:13;29.13;;;11.03;;
8592;SDS011;4334;49.982;8.398;2022-11-11T08:29:39;28.33;;;10.30;;
8592;SDS011;4334;49.982;8.398;2022-11-11T08:32:06;26.10;;;10.90;;
8592;SDS011;4334;49.982;8.398;2022-11-11T08:34:33;26.27;;;11.10;;
8592;SDS011;4334;49.982;8.398;2022-11-11T08:37:00;28.40;;;11.53;;
8592;SDS011;4334;49.982;8.398;2022-11-11T08:39:27;23.60;;;9.90;;
8592;SDS011;4334;49.982;8.398;2022-11-11T08:41:54;30.10;;;11.07;;
8592;SDS011;4334;49.982;8.398;2022-11-11T08:44:22;29.17;;;11.37;;
8592;SDS011;4334;49.982;8.398;2022-11-11T08:46:49;24.83;;;11.53;;
8592;SDS011;4334;49.982;8.398;2022-11-11T08:49:15;22.67;;;10.73;;
8592;SDS011;4334;49.982;8.398;2022-11-11T08:51:42;25.27;;;10.67;;
8592;SDS011;4334;49.982;8.398;2022-11-11T08:54:09;24.47;;;11.33;;
8592;SDS011;4334;49.982;8.398;2022-11-11T08:56:36;17.70;;;10.87;;
8592;SDS011;4334;49.982;8.398;2022-11-11T08:59:04;26.00;;;11.00;;
8592;SDS011;4334;49.982;8.398;2022-11-11T09:01:32;24.67;;;11.07;;
8592;SDS011;4334;49.982;8.398;2022-11-11T09:03:59;21.67;;;10.80;;
8592;SDS011;4334;49.982;8.398;2022-11-11T09:06:26;24.83;;;11.20;;
8592;SDS011;4334;49.982;8.398;2022-11-11T09:08:53;20.53;;;11.30;;
8592;SDS011;4334;49.982;8.398;2022-11-11T09:11:20;20.90;;;12.30;;
8592;SDS011;4334;49.982;8.398;2022-11-11T09:13:47;20.77;;;11.70;;
8592;SDS011;4334;49.982;8.398;2022-11-11T09:16:14;21.63;;;12.53;;
8592;SDS011;4334;49.982;8.398;2022-11-11T09:18:43;27.53;;;10.17;;
8592;SDS011;4334;49.982;8.398;2022-11-11T09:21:11;20.47;;;9.27;;
8592;SDS011;4334;49.982;8.398;2022-11-11T09:23:37;30.13;;;9.30;;
8592;SDS011;4334;49.982;8.398;2022-11-11T09:26:04;16.70;;;9.00;;
8592;SDS011;4334;49.982;8.398;2022-11-11T09:28:32;18.07;;;9.43;;
8592;SDS011;4334;49.982;8.398;2022-11-11T09:30:59;19.77;;;9.47;;
8592;SDS011;4334;49.982;8.398;2022-11-11T09:33:26;23.07;;;9.87;;
8592;SDS011;4334;49.982;8.398;2022-11-11T09:35:56;20.40;;;9.17;;
8592;SDS011;4334;49.982;8.398;2022-11-11T09:38:23;23.67;;;10.20;;
8592;SDS011;4334;49.982;8.398;2022-11-11T09:40:56;18.80;;;9.07;;
8592;SDS011;4334;49.982;8.398;2022-11-11T09:43:34;26.10;;;9.53;;
8592;SDS011;4334;49.982;8.398;2022-11-11T09:46:12;19.63;;;9.47;;
8592;SDS011;4334;49.982;8.398;2022-11-11T09:48:51;18.80;;;9.57;;
8592;SDS011;4334;49.982;8.398;2022-11-11T09:51:27;21.27;;;10.27;;
8592;SDS011;4334;49.982;8.398;2022-11-11T09:53:58;19.03;;;10.23;;
8592;SDS011;4334;49.982;8.398;2022-11-11T09:56:29;23.70;;;11.03;;
8592;SDS011;4334;49.982;8.398;2022-11-11T09:58:59;20.73;;;11.10;;
8592;SDS011;4334;49.982;8.398;2022-11-11T10:01:32;20.50;;;11.37;;
8592;SDS011;4334;49.982;8.398;2022-11-11T10:04:04;21.50;;;10.10;;
8592;SDS011;4334;49.982;8.398;2022-11-11T10:06:42;22.73;;;9.77;;
8592;SDS011;4334;49.982;8.398;2022-11-11T10:09:14;18.53;;;10.43;;
8592;SDS011;4334;49.982;8.398;2022-11-11T10:11:47;18.37;;;9.93;;
8592;SDS011;4334;49.982;8.398;2022-11-11T10:14:18;17.87;;;10.33;;
8592;SDS011;4334;49.982;8.398;2022-11-11T10:16:46;18.67;;;11.03;;
8592;SDS011;4334;49.982;8.398;2022-11-11T10:19:23;20.97;;;11.37;;
8592;SDS011;4334;49.982;8.398;2022-11-11T10:21:57;22.07;;;11.40;;
8592;SDS011;4334;49.982;8.398;2022-11-11T10:24:28;19.93;;;10.67;;
8592;SDS011;4334;49.982;8.398;2022-11-11T10:26:58;24.10;;;11.43;;
8592;SDS011;4334;49.982;8.398;2022-11-11T10:29:29;19.53;;;11.53;;
8592;SDS011;4334;49.982;8.398;2022-11-11T10:32:09;19.47;;;11.83;;
8592;SDS011;4334;49.982;8.398;2022-11-11T10:34:42;19.03;;;11.33;;
8592;SDS011;4334;49.982;8.398;2022-11-11T10:37:16;18.43;;;11.30;;
8592;SDS011;4334;49.982;8.398;2022-11-11T10:39:59;19.00;;;11.33;;
8592;SDS011;4334;49.982;8.398;2022-11-11T10:42:35;17.23;;;10.97;;
8592;SDS011;4334;49.982;8.398;2022-11-11T10:45:02;16.33;;;10.80;;
8592;SDS011;4334;49.982;8.398;2022-11-11T10:47:41;15.27;;;11.10;;
8592;SDS011;4334;49.982;8.398;2022-11-11T10:50:13;17.80;;;11.67;;
8592;SDS011;4334;49.982;8.398;2022-11-11T10:52:46;14.63;;;10.60;;
8592;SDS011;4334;49.982;8.398;2022-11-11T10:55:20;15.70;;;10.43;;
8592;SDS011;4334;49.982;8.398;2022-11-11T10:57:54;17.87;;;10.70;;
8592;SDS011;4334;49.982;8.398;2022-11-11T11:00:26;17.30;;;11.37;;
8592;SDS011;4334;49.982;8.398;2022-11-11T11:02:54;17.50;;;11.47;;
8592;SDS011;4334;49.982;8.398;2022-11-11T11:05:28;23.87;;;14.50;;
8592;SDS011;4334;49.982;8.398;2022-11-11T11:08:05;20.00;;;13.50;;
8592;SDS011;4334;49.982;8.398;2022-11-11T11:10:36;21.40;;;12.87;;
8592;SDS011;4334;49.982;8.398;2022-11-11T11:13:08;22.23;;;12.93;;
8592;SDS011;4334;49.982;8.398;2022-11-11T11:15:42;19.47;;;12.73;;
8592;SDS011;4334;49.982;8.398;2022-11-11T11:18:14;20.63;;;14.00;;
8592;SDS011;4334;49.982;8.398;2022-11-11T11:20:53;20.80;;;13.67;;
8592;SDS011;4334;49.982;8.398;2022-11-11T11:23:35;22.63;;;14.37;;
8592;SDS011;4334;49.982;8.398;2022-11-11T11:26:05;21.10;;;14.03;;
8592;SDS011;4334;49.982;8.398;2022-11-11T11:28:33;21.33;;;14.07;;
8592;SDS011;4334;49.982;8.398;2022-11-11T11:31:02;22.63;;;14.07;;
8592;SDS011;4334;49.982;8.398;2022-11-11T11:36:17;24.33;;;15.10;;
8592;SDS011;4334;49.982;8.398;2022-11-11T11:38:47;23.73;;;15.33;;
8592;SDS011;4334;49.982;8.398;2022-11-11T11:41:15;27.17;;;15.47;;
8592;SDS011;4334;49.982;8.398;2022-11-11T11:43:44;22.70;;;15.77;;
8592;SDS011;4334;49.982;8.398;2022-11-11T11:46:18;23.67;;;15.07;;
8592;SDS011;4334;49.982;8.398;2022-11-11T11:48:55;23.63;;;16.03;;
8592;SDS011;4334;49.982;8.398;2022-11-11T11:51:33;23.27;;;14.63;;
8592;SDS011;4334;49.982;8.398;2022-11-11T11:54:16;29.37;;;15.67;;
8592;SDS011;4334;49.982;8.398;2022-11-11T11:56:51;22.70;;;15.57;;
8592;SDS011;4334;49.982;8.398;2022-11-11T11:59:24;23.13;;;14.67;;
8592;SDS011;4334;49.982;8.398;2022-11-11T12:01:56;24.07;;;16.57;;
8592;SDS011;4334;49.982;8.398;2022-11-11T12:04:39;24.50;;;15.63;;
8592;SDS011;4334;49.982;8.398;2022-11-11T12:07:28;21.07;;;14.97;;
8592;SDS011;4334;49.982;8.398;2022-11-11T12:10:07;27.60;;;16.30;;
8592;SDS011;4334;49.982;8.398;2022-11-11T12:12:47;23.53;;;14.70;;
8592;SDS011;4334;49.982;8.398;2022-11-11T12:15:24;25.90;;;15.40;;
8592;SDS011;4334;49.982;8.398;2022-11-11T12:18:06;22.97;;;14.93;;
8592;SDS011;4334;49.982;8.398;2022-11-11T12:20:45;25.20;;;15.67;;
8592;SDS011;4334;49.982;8.398;2022-11-11T12:23:25;24.60;;;16.10;;
8592;SDS011;4334;49.982;8.398;2022-11-11T12:26:06;24.30;;;15.53;;
8592;SDS011;4334;49.982;8.398;2022-11-11T12:28:46;21.83;;;15.03;;
8592;SDS011;4334;49.982;8.398;2022-11-11T12:31:26;21.23;;;14.70;;
8592;SDS011;4334;49.982;8.398;2022-11-11T12:34:04;23.67;;;14.97;;
8592;SDS011;4334;49.982;8.398;2022-11-11T12:36:43;21.17;;;13.87;;
8592;SDS011;4334;49.982;8.398;2022-11-11T12:39:29;20.57;;;13.70;;
8592;SDS011;4334;49.982;8.398;2022-11-11T12:42:17;22.50;;;14.53;;
8592;SDS011;4334;49.982;8.398;2022-11-11T12:44:54;18.67;;;13.27;;
8592;SDS011;4334;49.982;8.398;2022-11-11T12:47:33;19.47;;;12.83;;
8592;SDS011;4334;49.982;8.398;2022-11-11T12:50:07;20.17;;;11.90;;
8592;SDS011;4334;49.982;8.398;2022-11-11T12:52:46;19.17;;;12.67;;
8592;SDS011;4334;49.982;8.398;2022-11-11T12:55:25;18.57;;;12.20;;
8592;SDS011;4334;49.982;8.398;2022-11-11T12:58:04;20.03;;;12.17;;
8592;SDS011;4334;49.982;8.398;2022-11-11T13:00:46;21.00;;;12.30;;
8592;SDS011;4334;49.982;8.398;2022-11-11T13:03:27;22.60;;;12.20;;
8592;SDS011;4334;49.982;8.398;2022-11-11T13:06:05;20.63;;;12.70;;
8592;SDS011;4334;49.982;8.398;2022-11-11T13:08:49;19.70;;;12.10;;
8592;SDS011;4334;49.982;8.398;2022-11-11T13:11:32;20.60;;;13.13;;
8592;SDS011;4334;49.982;8.398;2022-11-11T13:14:09;19.93;;;12.50;;
8592;SDS011;4334;49.982;8.398;2022-11-11T13:16:50;23.10;;;13.30;;
8592;SDS011;4334;49.982;8.398;2022-11-11T13:19:21;28.23;;;14.00;;
8592;SDS011;4334;49.982;8.398;2022-11-11T13:21:54;27.63;;;13.67;;
8592;SDS011;4334;49.982;8.398;2022-11-11T13:24:26;27.70;;;14.37;;
8592;SDS011;4334;49.982;8.398;2022-11-11T13:26:56;23.00;;;14.70;;
8592;SDS011;4334;49.982;8.398;2022-11-11T13:29:52;22.77;;;13.93;;
8592;SDS011;4334;49.982;8.398;2022-11-11T13:32:30;32.53;;;14.97;;
8592;SDS011;4334;49.982;8.398;2022-11-11T13:35:02;23.63;;;14.37;;
8592;SDS011;4334;49.982;8.398;2022-11-11T13:37:36;22.60;;;14.67;;
8592;SDS011;4334;49.982;8.398;2022-11-11T13:40:05;24.77;;;14.57;;
8592;SDS011;4334;49.982;8.398;2022-11-11T13:42:36;31.47;;;13.30;;
8592;SDS011;4334;49.982;8.398;2022-11-11T13:45:18;23.03;;;14.40;;
8592;SDS011;4334;49.982;8.398;2022-11-11T13:47:51;22.47;;;14.67;;
8592;SDS011;4334;49.982;8.398;2022-11-11T13:50:21;25.60;;;14.10;;
8592;SDS011;4334;49.982;8.398;2022-11-11T13:52:52;23.40;;;14.77;;
8592;SDS011;4334;49.982;8.398;2022-11-11T13:55:27;24.63;;;14.93;;
8592;SDS011;4334;49.982;8.398;2022-11-11T13:57:57;23.37;;;13.83;;
8592;SDS011;4334;49.982;8.398;2022-11-11T14:00:27;23.97;;;14.50;;
8592;SDS011;4334;49.982;8.398;2022-11-11T14:12:33;30.73;;;18.17;;
8592;SDS011;4334;49.982;8.398;2022-11-11T14:15:03;22.63;;;15.00;;
8592;SDS011;4334;49.982;8.398;2022-11-11T14:17:34;23.03;;;15.40;;
8592;SDS011;4334;49.982;8.398;2022-11-11T14:23:13;25.37;;;15.27;;
8592;SDS011;4334;49.982;8.398;2022-11-11T14:25:48;23.53;;;14.93;;
8592;SDS011;4334;49.982;8.398;2022-11-11T14:28:21;28.87;;;16.97;;
8592;SDS011;4334;49.982;8.398;2022-11-11T14:30:51;26.73;;;15.57;;
8592;SDS011;4334;49.982;8.398;2022-11-11T14:33:22;23.67;;;15.20;;
8592;SDS011;4334;49.982;8.398;2022-11-11T14:36:05;23.43;;;14.90;;
8592;SDS011;4334;49.982;8.398;2022-11-11T14:38:43;24.30;;;15.37;;
8592;SDS011;4334;49.982;8.398;2022-11-11T14:47:30;27.13;;;16.60;;
8592;SDS011;4334;49.982;8.398;2022-11-11T14:49:59;25.43;;;15.40;;
8592;SDS011;4334;49.982;8.398;2022-11-11T14:52:28;25.60;;;16.13;;
8592;SDS011;4334;49.982;8.398;2022-11-11T14:55:12;24.70;;;15.33;;
8592;SDS011;4334;49.982;8.398;2022-11-11T14:57:45;25.80;;;15.20;;
8592;SDS011;4334;49.982;8.398;2022-11-11T15:00:14;30.83;;;15.83;;
8592;SDS011;4334;49.982;8.398;2022-11-11T15:02:46;27.47;;;15.47;;
8592;SDS011;4334;49.982;8.398;2022-11-11T15:05:19;29.00;;;16.23;;
8592;SDS011;4334;49.982;8.398;2022-11-11T15:10:43;30.50;;;16.23;;
8592;SDS011;4334;49.982;8.398;2022-11-11T15:13:42;35.90;;;15.93;;
8592;SDS011;4334;49.982;8.398;2022-11-11T15:16:21;33.20;;;17.67;;
8592;SDS011;4334;49.982;8.398;2022-11-11T15:19:02;79.63;;;16.20;;
8592;SDS011;4334;49.982;8.398;2022-11-11T15:21:41;40.97;;;15.93;;
8592;SDS011;4334;49.982;8.398;2022-11-11T15:24:17;33.97;;;17.87;;
8592;SDS011;4334;49.982;8.398;2022-11-11T15:26:55;36.40;;;18.03;;
8592;SDS011;4334;49.982;8.398;2022-11-11T15:29:39;37.90;;;18.60;;
8592;SDS011;4334;49.982;8.398;2022-11-11T15:32:18;66.60;;;18.20;;
8592;SDS011;4334;49.982;8.398;2022-11-11T15:34:56;39.30;;;17.20;;
8592;SDS011;4334;49.982;8.398;2022-11-11T15:37:31;46.40;;;16.10;;
8592;SDS011;4334;49.982;8.398;2022-11-11T15:39:58;35.67;;;15.97;;
8592;SDS011;4334;49.982;8.398;2022-11-11T15:42:27;43.63;;;14.73;;